createdAt,value
2022-10-19T00:01:50.538Z,27.40
2022-10-19T00:04:17.804Z,27.35
2022-10-19T00:06:45.737Z,27.85
2022-10-19T00:09:17.587Z,27.52
2022-10-19T00:11:47.332Z,30.13
2022-10-19T00:14:18.308Z,31.98
2022-10-19T00:16:47.527Z,32.22
2022-10-19T00:19:22.494Z,30.85
2022-10-19T00:24:18.112Z,24.55
2022-10-19T00:26:45.827Z,25.42
2022-10-19T00:29:14.759Z,25.35
2022-10-19T00:31:42.140Z,28.95
2022-10-19T00:34:09.767Z,27.92
2022-10-19T00:36:39.826Z,30.23
2022-10-19T00:39:10.854Z,28.30
2022-10-19T00:41:38.661Z,27.88
2022-10-19T00:44:10.102Z,27.20
2022-10-19T00:46:40.239Z,27.83
2022-10-19T00:49:13.930Z,26.30
2022-10-19T00:51:45.052Z,28.75
2022-10-19T00:54:12.547Z,28.00
2022-10-19T00:56:42.495Z,27.33
2022-10-19T00:59:10.501Z,28.67
2022-10-19T01:01:38.699Z,27.13
2022-10-19T01:04:06.006Z,28.13
2022-10-19T01:06:34.051Z,27.58
2022-10-19T01:09:01.235Z,27.63
2022-10-19T01:11:32.725Z,27.27
2022-10-19T01:14:32.695Z,27.15
2022-10-19T01:17:11.362Z,27.58
2022-10-19T01:19:49.205Z,27.30
2022-10-19T01:22:28.549Z,27.17
2022-10-19T01:25:22.139Z,26.23
2022-10-19T01:28:13.744Z,26.30
2022-10-19T01:31:16.819Z,25.90
2022-10-19T01:34:03.963Z,25.98
2022-10-19T01:36:42.437Z,27.13
2022-10-19T01:39:28.386Z,26.52
2022-10-19T01:42:11.225Z,25.92
2022-10-19T01:44:46.806Z,26.48
2022-10-19T01:47:20.365Z,26.45
2022-10-19T01:49:52.045Z,27.80
2022-10-19T01:52:21.501Z,25.58
2022-10-19T01:54:52.202Z,26.77
2022-10-19T01:57:28.353Z,27.52
2022-10-19T01:59:57.603Z,26.92
2022-10-19T02:02:28.019Z,25.58
2022-10-19T02:04:57.017Z,26.45
2022-10-19T02:07:26.065Z,26.48
2022-10-19T02:09:53.179Z,26.38
2022-10-19T02:12:21.431Z,25.27
2022-10-19T02:14:53.842Z,26.48
2022-10-19T02:17:26.514Z,27.75
2022-10-19T02:19:54.806Z,28.02
2022-10-19T02:22:22.299Z,28.13
2022-10-19T02:24:49.533Z,29.50
2022-10-19T02:27:17.455Z,28.27
2022-10-19T02:29:44.876Z,29.13
2022-10-19T02:32:12.872Z,28.30
2022-10-19T02:34:40.626Z,28.55
2022-10-19T02:37:08.099Z,27.33
2022-10-19T02:39:35.332Z,26.60
2022-10-19T02:42:06.578Z,26.60
2022-10-19T02:44:43.282Z,27.40
2022-10-19T02:47:17.843Z,25.38
2022-10-19T02:52:13.982Z,26.75
2022-10-19T02:54:43.371Z,26.42
2022-10-19T02:57:24.368Z,29.60
2022-10-19T02:59:52.473Z,32.78
2022-10-19T03:02:21.242Z,34.28
2022-10-19T03:07:20.011Z,31.05
2022-10-19T03:09:47.235Z,29.85
2022-10-19T03:12:15.095Z,27.27
2022-10-19T03:14:42.750Z,29.58
2022-10-19T03:17:10.409Z,31.48
2022-10-19T03:19:37.947Z,31.77
2022-10-19T03:22:05.396Z,32.35
2022-10-19T03:24:33.222Z,33.17
2022-10-19T03:27:00.339Z,36.30
2022-10-19T03:29:27.732Z,33.05
2022-10-19T03:31:54.798Z,34.20
2022-10-19T03:34:21.894Z,34.33
2022-10-19T03:36:49.094Z,34.42
2022-10-19T03:39:17.120Z,37.85
2022-10-19T03:41:44.378Z,35.33
2022-10-19T03:44:11.557Z,39.15
2022-10-19T03:46:39.358Z,38.28
2022-10-19T03:49:07.023Z,37.28
2022-10-19T03:51:35.346Z,35.88
2022-10-19T03:54:05.828Z,37.40
2022-10-19T03:56:34.541Z,37.97
2022-10-19T03:59:04.203Z,36.67
2022-10-19T04:01:35.951Z,35.45
2022-10-19T04:04:06.135Z,38.97
2022-10-19T04:06:37.972Z,37.67
2022-10-19T04:09:07.426Z,36.15
2022-10-19T04:11:35.734Z,35.03
2022-10-19T04:14:03.059Z,36.80
2022-10-19T04:16:31.398Z,33.65
2022-10-19T04:18:59.202Z,36.30
2022-10-19T04:21:30.604Z,35.47
2022-10-19T04:24:01.407Z,33.67
2022-10-19T04:26:29.457Z,36.00
2022-10-19T04:28:59.112Z,37.53
2022-10-19T04:31:27.259Z,32.80
2022-10-19T04:33:54.733Z,34.75
2022-10-19T04:36:22.353Z,33.70
2022-10-19T04:38:49.501Z,32.72
2022-10-19T04:41:19.821Z,36.55
2022-10-19T04:43:48.031Z,30.60
2022-10-19T04:46:17.900Z,30.70
2022-10-19T04:48:46.355Z,31.83
2022-10-19T04:51:14.512Z,32.70
2022-10-19T04:53:42.944Z,35.08
2022-10-19T04:56:16.133Z,32.58
2022-10-19T04:58:43.816Z,32.95
2022-10-19T05:01:12.959Z,36.53
2022-10-19T05:03:40.657Z,45.92
2022-10-19T05:06:08.559Z,47.58
2022-10-19T05:08:37.012Z,48.85
2022-10-19T05:11:07.268Z,46.03
2022-10-19T05:13:35.185Z,41.80
2022-10-19T05:16:04.324Z,40.38
2022-10-19T05:18:31.849Z,37.08
2022-10-19T05:21:09.039Z,40.97
2022-10-19T05:23:36.174Z,39.67
2022-10-19T05:26:08.371Z,42.08
2022-10-19T05:28:36.734Z,37.55
2022-10-19T05:31:07.508Z,36.08
2022-10-19T05:33:35.065Z,37.97
2022-10-19T05:36:19.599Z,35.40
2022-10-19T05:38:50.473Z,39.67
2022-10-19T05:41:17.814Z,37.13
2022-10-19T05:43:46.240Z,32.95
2022-10-19T05:46:18.319Z,29.77
2022-10-19T05:48:46.495Z,31.08
2022-10-19T05:51:17.159Z,29.98
2022-10-19T05:53:44.435Z,30.83
2022-10-19T05:56:23.032Z,28.85
2022-10-19T05:58:50.319Z,26.85
2022-10-19T06:01:19.854Z,29.98
2022-10-19T06:03:48.076Z,27.05
2022-10-19T06:06:15.115Z,28.90
2022-10-19T06:08:42.463Z,26.90
2022-10-19T06:11:14.358Z,28.27
2022-10-19T06:13:43.069Z,25.55
2022-10-19T06:16:12.263Z,25.33
2022-10-19T06:18:40.385Z,24.45
2022-10-19T06:21:10.749Z,25.40
2022-10-19T06:23:38.373Z,23.08
2022-10-19T06:26:08.522Z,23.60
2022-10-19T06:28:36.910Z,21.75
2022-10-19T06:31:07.163Z,23.58
2022-10-19T06:33:36.390Z,21.88
2022-10-19T06:36:08.446Z,22.95
2022-10-19T06:38:35.706Z,20.95
2022-10-19T06:41:03.131Z,20.50
2022-10-19T06:43:30.280Z,18.80
2022-10-19T06:45:57.603Z,19.90
2022-10-19T06:48:24.947Z,18.95
2022-10-19T06:50:58.435Z,17.55
2022-10-19T06:53:25.998Z,18.88
2022-10-19T06:55:53.381Z,19.25
2022-10-19T06:58:20.475Z,19.02
2022-10-19T07:00:57.291Z,18.33
2022-10-19T07:03:25.783Z,17.80
2022-10-19T07:05:54.799Z,18.35
2022-10-19T07:08:22.389Z,17.40
2022-10-19T07:10:54.765Z,19.58
2022-10-19T07:13:22.716Z,19.08
2022-10-19T07:15:50.205Z,18.90
2022-10-19T07:18:17.535Z,17.35
2022-10-19T07:20:55.556Z,17.88
2022-10-19T07:23:22.903Z,17.13
2022-10-19T07:25:50.035Z,17.23
2022-10-19T07:28:17.192Z,17.83
2022-10-19T07:30:44.343Z,17.30
2022-10-19T07:33:11.625Z,17.65
2022-10-19T07:35:38.851Z,17.70
2022-10-19T07:38:05.929Z,18.95
2022-10-19T07:40:33.098Z,17.67
2022-10-19T07:43:00.181Z,17.60
2022-10-19T07:45:27.332Z,18.10
2022-10-19T07:47:54.439Z,17.95
2022-10-19T07:50:24.820Z,17.50
2022-10-19T07:52:52.828Z,17.25
2022-10-19T07:55:20.019Z,16.50
2022-10-19T07:57:48.719Z,15.98
2022-10-19T08:00:17.803Z,16.98
2022-10-19T08:03:18.958Z,17.95
2022-10-19T08:05:34.063Z,18.67
2022-10-19T08:08:01.345Z,19.00
2022-10-19T08:10:28.598Z,18.10
2022-10-19T08:12:55.741Z,17.92
2022-10-19T08:15:22.903Z,17.80
2022-10-19T08:17:50.068Z,17.10
2022-10-19T08:20:17.160Z,14.90
2022-10-19T08:22:45.395Z,15.18
2022-10-19T08:25:12.495Z,14.82
2022-10-19T08:27:39.593Z,13.30
2022-10-19T08:30:07.791Z,14.75
2022-10-19T08:32:35.116Z,13.57
2022-10-19T08:35:05.034Z,12.80
2022-10-19T08:37:44.124Z,11.60
2022-10-19T08:40:23.673Z,11.02
2022-10-19T08:43:10.677Z,11.43
2022-10-19T08:45:57.672Z,11.48
2022-10-19T08:48:36.857Z,11.20
2022-10-19T08:51:06.437Z,9.20
2022-10-19T08:53:46.165Z,9.27
2022-10-19T08:56:45.674Z,9.93
2022-10-19T08:59:12.564Z,10.50
2022-10-19T09:01:49.887Z,9.63
2022-10-19T09:04:17.010Z,9.88
2022-10-19T09:07:07.375Z,10.52
2022-10-19T09:09:41.095Z,9.35
2022-10-19T09:12:12.875Z,9.40
2022-10-19T09:15:01.009Z,8.93
2022-10-19T09:17:28.883Z,8.02
2022-10-19T09:19:56.827Z,8.05
2022-10-19T09:22:32.709Z,6.38
2022-10-19T09:25:10.086Z,6.97
2022-10-19T09:27:40.266Z,5.88
2022-10-19T09:30:19.441Z,7.10
2022-10-19T09:32:48.819Z,4.93
2022-10-19T09:35:37.563Z,3.50
2022-10-19T09:38:07.400Z,3.40
2022-10-19T09:40:35.666Z,2.72
2022-10-19T09:43:19.662Z,2.67
2022-10-19T09:45:46.766Z,2.65
2022-10-19T09:48:25.466Z,3.03
2022-10-19T09:50:57.890Z,3.03
2022-10-19T09:53:26.825Z,2.92
2022-10-19T09:56:18.527Z,3.70
2022-10-19T09:58:52.061Z,4.13
2022-10-19T10:01:43.257Z,4.32
2022-10-19T10:04:15.340Z,4.82
2022-10-19T10:06:44.740Z,5.00
2022-10-19T10:09:18.248Z,3.90
2022-10-19T10:11:49.689Z,4.25
2022-10-19T10:14:30.647Z,4.40
2022-10-19T10:17:03.909Z,4.70
2022-10-19T10:19:33.092Z,4.20
2022-10-19T10:22:00.592Z,3.85
2022-10-19T10:24:30.306Z,4.28
2022-10-19T10:27:00.317Z,3.83
2022-10-19T10:29:31.219Z,4.35
2022-10-19T10:32:05.111Z,4.13
2022-10-19T10:34:58.560Z,4.35
2022-10-19T10:37:45.464Z,3.55
2022-10-19T10:40:23.602Z,3.60
2022-10-19T10:42:53.606Z,3.90
2022-10-19T10:45:43.136Z,3.70
2022-10-19T10:48:19.311Z,3.63
2022-10-19T10:50:46.660Z,3.40
2022-10-19T10:53:34.715Z,3.70
2022-10-19T10:56:02.230Z,3.63
2022-10-19T10:58:31.895Z,3.63
2022-10-19T11:01:06.572Z,4.45
2022-10-19T11:03:37.647Z,4.15
2022-10-19T11:06:04.903Z,4.20
2022-10-19T11:08:57.028Z,4.30
2022-10-19T11:11:46.198Z,4.15
2022-10-19T11:14:33.540Z,4.03
2022-10-19T11:17:17.052Z,4.68
2022-10-19T11:19:45.371Z,4.38
2022-10-19T11:22:41.045Z,4.55
2022-10-19T11:25:12.555Z,4.28
2022-10-19T11:27:55.700Z,4.40
2022-10-19T11:30:25.085Z,4.35
2022-10-19T11:33:12.062Z,3.92
2022-10-19T11:36:00.136Z,4.68
2022-10-19T11:38:30.221Z,5.07
2022-10-19T11:41:26.973Z,5.03
2022-10-19T11:44:05.160Z,4.75
2022-10-19T11:46:42.943Z,5.57
2022-10-19T11:49:11.100Z,4.60
2022-10-19T11:51:44.012Z,5.15
2022-10-19T11:54:30.945Z,5.10
2022-10-19T11:57:06.347Z,4.28
2022-10-19T11:59:36.475Z,5.03
2022-10-19T12:02:19.607Z,5.07
2022-10-19T12:05:00.504Z,4.53
2022-10-19T12:08:00.216Z,5.65
2022-10-19T12:10:40.679Z,4.25
2022-10-19T12:13:15.026Z,4.32
2022-10-19T12:15:49.945Z,4.30
2022-10-19T12:18:35.461Z,4.07
2022-10-19T12:21:09.943Z,4.20
2022-10-19T12:23:39.965Z,4.65
2022-10-19T12:26:10.245Z,4.13
2022-10-19T12:28:40.835Z,3.88
2022-10-19T12:31:09.757Z,4.43
2022-10-19T12:33:36.865Z,4.10
2022-10-19T12:36:23.827Z,4.40
2022-10-19T12:39:00.239Z,4.40
2022-10-19T12:41:53.248Z,4.25
2022-10-19T12:44:35.924Z,4.32
2022-10-19T12:47:10.479Z,4.50
2022-10-19T12:49:43.589Z,3.75
2022-10-19T12:52:12.152Z,3.85
2022-10-19T12:54:42.147Z,4.38
2022-10-19T12:57:29.721Z,4.03
2022-10-19T13:00:01.624Z,4.13
2022-10-19T13:05:00.763Z,3.88
2022-10-19T13:07:31.253Z,3.92
2022-10-19T13:10:02.853Z,4.45
2022-10-19T13:12:43.749Z,3.95
2022-10-19T13:15:34.178Z,4.53
2022-10-19T13:18:12.115Z,3.50
2022-10-19T13:23:11.129Z,3.88
2022-10-19T13:25:39.404Z,3.50
2022-10-19T13:28:06.457Z,3.60
2022-10-19T13:30:38.279Z,3.45
2022-10-19T13:33:27.308Z,3.47
2022-10-19T13:36:02.685Z,3.90
2022-10-19T13:38:32.955Z,3.20
2022-10-19T13:41:05.096Z,3.63
2022-10-19T13:43:54.841Z,3.28
2022-10-19T13:46:30.244Z,3.45
2022-10-19T13:49:32.761Z,3.58
2022-10-19T13:52:23.344Z,3.08
2022-10-19T13:55:08.915Z,3.30
2022-10-19T13:57:57.010Z,3.45
2022-10-19T14:00:50.885Z,3.70
2022-10-19T14:03:26.535Z,3.50
2022-10-19T14:06:16.905Z,3.78
2022-10-19T14:09:14.232Z,3.53
2022-10-19T14:11:44.258Z,3.88
2022-10-19T14:14:11.385Z,3.17
2022-10-19T14:16:50.333Z,3.28
2022-10-19T14:19:26.947Z,3.47
2022-10-19T14:21:57.796Z,3.58
2022-10-19T14:24:36.029Z,3.40
2022-10-19T14:27:07.331Z,3.63
2022-10-19T14:29:45.157Z,3.42
2022-10-19T14:32:14.102Z,3.38
2022-10-19T14:34:45.187Z,2.83
2022-10-19T14:37:24.224Z,3.03
2022-10-19T14:40:32.062Z,2.70
2022-10-19T14:43:02.253Z,2.50
2022-10-19T14:45:32.473Z,3.50
2022-10-19T14:48:04.602Z,2.38
2022-10-19T14:50:42.078Z,3.30
2022-10-19T14:53:20.648Z,2.80
2022-10-19T14:55:50.294Z,2.90
2022-10-19T14:58:22.397Z,2.95
2022-10-19T15:00:51.498Z,2.88
2022-10-19T15:03:26.191Z,2.78
2022-10-19T15:06:00.736Z,3.00
2022-10-19T15:08:35.093Z,3.00
2022-10-19T15:11:02.531Z,3.08
2022-10-19T15:13:36.513Z,2.67
2022-10-19T15:16:03.751Z,2.60
2022-10-19T15:18:49.648Z,2.83
2022-10-19T15:21:22.136Z,2.88
2022-10-19T15:23:52.610Z,3.00
2022-10-19T15:26:29.328Z,2.97
2022-10-19T15:29:10.172Z,3.33
2022-10-19T15:31:37.944Z,2.85
2022-10-19T15:34:07.753Z,2.83
2022-10-19T15:36:34.847Z,2.55
2022-10-19T15:39:18.344Z,2.95
2022-10-19T15:41:51.904Z,2.70
2022-10-19T15:44:42.705Z,3.08
2022-10-19T15:47:23.247Z,2.83
2022-10-19T15:49:52.473Z,3.08
2022-10-19T15:52:21.158Z,2.83
2022-10-19T15:54:49.845Z,2.95
2022-10-19T15:57:35.903Z,2.58
2022-10-19T16:00:13.505Z,3.10
2022-10-19T16:02:40.971Z,3.60
2022-10-19T16:05:08.649Z,3.17
2022-10-19T16:07:39.269Z,2.95
2022-10-19T16:10:08.126Z,3.65
2022-10-19T16:12:35.285Z,3.13
2022-10-19T16:15:02.581Z,3.50
2022-10-19T16:17:29.722Z,4.32
2022-10-19T16:19:58.584Z,3.80
2022-10-19T16:22:27.804Z,4.85
2022-10-19T16:24:56.520Z,4.40
2022-10-19T16:27:25.403Z,4.53
2022-10-19T16:29:55.944Z,3.58
2022-10-19T16:32:23.225Z,4.30
2022-10-19T16:34:50.302Z,4.18
2022-10-19T16:37:17.600Z,4.18
2022-10-19T16:39:44.781Z,4.30
2022-10-19T16:42:15.974Z,3.95
2022-10-19T16:44:45.521Z,4.00
2022-10-19T16:47:13.611Z,3.55
2022-10-19T16:49:40.823Z,3.55
2022-10-19T16:52:08.125Z,4.07
2022-10-19T16:54:35.269Z,3.78
2022-10-19T16:57:07.173Z,3.97
2022-10-19T16:59:36.960Z,3.40
2022-10-19T17:02:04.150Z,4.25
2022-10-19T17:04:31.423Z,5.60
2022-10-19T17:06:58.545Z,6.82
2022-10-19T17:09:42.599Z,5.95
2022-10-19T17:12:11.291Z,5.80
2022-10-19T17:14:40.832Z,5.15
2022-10-19T17:17:09.913Z,5.28
2022-10-19T17:19:39.743Z,5.90
2022-10-19T17:22:10.646Z,7.53
2022-10-19T17:24:39.442Z,8.18
2022-10-19T17:27:06.890Z,8.80
2022-10-19T17:29:34.773Z,7.28
2022-10-19T17:32:02.774Z,8.23
2022-10-19T17:34:29.944Z,8.18
2022-10-19T17:36:57.170Z,8.27
2022-10-19T17:39:29.135Z,7.30
2022-10-19T17:42:02.297Z,9.35
2022-10-19T17:44:30.812Z,9.57
2022-10-19T17:47:03.561Z,9.77
2022-10-19T17:49:31.473Z,9.93
2022-10-19T17:51:58.897Z,9.07
2022-10-19T17:54:26.809Z,7.70
2022-10-19T17:56:55.468Z,7.43
2022-10-19T17:59:34.953Z,6.82
2022-10-19T18:02:04.067Z,7.38
2022-10-19T18:04:31.325Z,9.85
2022-10-19T18:06:58.513Z,11.02
2022-10-19T18:09:25.708Z,9.93
2022-10-19T18:11:52.871Z,7.07
2022-10-19T18:14:20.732Z,7.43
2022-10-19T18:16:48.133Z,7.00
2022-10-19T18:19:16.798Z,7.40
2022-10-19T18:21:46.180Z,7.47
2022-10-19T18:24:20.340Z,10.68
2022-10-19T18:26:51.649Z,8.95
2022-10-19T18:29:22.678Z,6.47
2022-10-19T18:31:53.145Z,6.75
2022-10-19T18:34:24.416Z,5.88
2022-10-19T18:36:52.584Z,5.05
2022-10-19T18:39:20.991Z,5.55
2022-10-19T18:41:52.394Z,5.10
2022-10-19T18:44:25.161Z,5.97
2022-10-19T18:46:55.730Z,6.07
2022-10-19T18:49:24.333Z,5.47
2022-10-19T18:51:55.124Z,5.20
2022-10-19T18:54:29.001Z,5.50
2022-10-19T18:56:56.800Z,4.80
2022-10-19T19:01:55.599Z,5.03
2022-10-19T19:04:23.942Z,5.18
2022-10-19T19:06:52.635Z,5.65
2022-10-19T19:09:32.095Z,5.30
2022-10-19T19:12:02.416Z,6.15
2022-10-19T19:14:30.106Z,6.28
2022-10-19T19:16:58.793Z,6.93
2022-10-19T19:19:28.533Z,7.97
2022-10-19T19:22:05.093Z,8.98
2022-10-19T19:24:35.839Z,9.15
2022-10-19T19:27:07.553Z,8.95
2022-10-19T19:29:35.884Z,9.10
2022-10-19T19:32:04.598Z,9.85
2022-10-19T19:34:32.215Z,8.40
2022-10-19T19:36:59.879Z,9.15
2022-10-19T19:39:28.528Z,8.45
2022-10-19T19:41:58.360Z,8.40
2022-10-19T19:44:29.952Z,8.63
2022-10-19T19:46:58.818Z,8.10
2022-10-19T19:49:32.897Z,7.72
2022-10-19T19:52:01.104Z,7.88
2022-10-19T19:54:28.247Z,6.72
2022-10-19T19:56:55.838Z,6.90
2022-10-19T19:59:24.447Z,6.55
2022-10-19T20:01:53.223Z,7.22
2022-10-19T20:04:21.201Z,6.80
2022-10-19T20:06:48.477Z,6.38
2022-10-19T20:09:17.812Z,7.20
2022-10-19T20:11:46.770Z,6.40
2022-10-19T20:14:14.296Z,7.15
2022-10-19T20:16:44.354Z,6.68
2022-10-19T20:19:14.257Z,6.20
2022-10-19T20:21:48.907Z,7.20
2022-10-19T20:24:20.698Z,6.72
2022-10-19T20:26:51.357Z,5.47
2022-10-19T20:29:19.110Z,5.78
2022-10-19T20:31:46.365Z,6.47
2022-10-19T20:34:14.946Z,6.85
2022-10-19T20:36:42.797Z,6.78
2022-10-19T20:39:10.601Z,6.15
2022-10-19T20:41:41.470Z,6.25
2022-10-19T20:44:10.383Z,5.82
2022-10-19T20:46:37.783Z,6.00
2022-10-19T20:49:05.560Z,6.13
2022-10-19T20:51:36.622Z,6.22
2022-10-19T20:54:06.611Z,5.70
2022-10-19T20:56:36.349Z,5.63
2022-10-19T20:59:09.017Z,5.40
2022-10-19T21:01:38.419Z,4.88
2022-10-19T21:04:08.187Z,5.15
2022-10-19T21:06:39.673Z,5.30
2022-10-19T21:09:08.517Z,4.97
2022-10-19T21:11:38.565Z,4.43
2022-10-19T21:14:08.815Z,4.22
2022-10-19T21:16:37.998Z,4.78
2022-10-19T21:19:08.752Z,4.00
2022-10-19T21:21:41.332Z,4.43
2022-10-19T21:24:14.950Z,4.00
2022-10-19T21:26:42.546Z,4.47
2022-10-19T21:29:15.579Z,3.67
2022-10-19T21:31:48.635Z,4.15
2022-10-19T21:34:19.026Z,3.80
2022-10-19T21:36:47.023Z,3.28
2022-10-19T21:39:14.825Z,3.70
2022-10-19T21:41:42.065Z,4.25
2022-10-19T21:44:09.999Z,4.20
2022-10-19T21:46:37.197Z,3.72
2022-10-19T21:49:04.542Z,3.22
2022-10-19T21:51:54.095Z,3.20
2022-10-19T21:54:25.303Z,3.42
2022-10-19T21:56:53.596Z,2.85
2022-10-19T21:59:21.047Z,3.33
2022-10-19T22:01:48.557Z,3.08
2022-10-19T22:04:17.839Z,3.22
2022-10-19T22:06:45.887Z,3.03
2022-10-19T22:09:18.393Z,2.75
2022-10-19T22:11:47.088Z,3.17
2022-10-19T22:14:15.848Z,3.45
2022-10-19T22:16:43.549Z,3.25
2022-10-19T22:19:11.372Z,3.05
2022-10-19T22:24:13.870Z,2.75
2022-10-19T22:26:44.876Z,2.92
2022-10-19T22:29:12.094Z,2.88
2022-10-19T22:31:39.667Z,2.65
2022-10-19T22:34:10.784Z,2.85
2022-10-19T22:36:38.203Z,3.00
2022-10-19T22:39:06.940Z,2.92
2022-10-19T22:41:34.298Z,3.35
2022-10-19T22:44:01.578Z,3.20
2022-10-19T22:46:28.876Z,3.13
2022-10-19T22:48:56.246Z,2.92
2022-10-19T22:51:23.509Z,3.10
2022-10-19T22:53:50.907Z,2.92
2022-10-19T22:56:17.969Z,2.97
2022-10-19T22:58:45.458Z,2.70
2022-10-19T23:01:15.307Z,3.03
2022-10-19T23:03:42.703Z,3.30
2022-10-19T23:06:12.238Z,3.97
2022-10-19T23:08:39.934Z,3.10
2022-10-19T23:11:07.756Z,2.85
2022-10-19T23:13:35.249Z,2.90
2022-10-19T23:16:02.710Z,3.10
2022-10-19T23:18:32.618Z,3.47
2022-10-19T23:21:02.096Z,3.30
2022-10-19T23:23:31.138Z,2.60
2022-10-19T23:26:07.979Z,3.10
2022-10-19T23:28:36.963Z,2.75
2022-10-19T23:31:06.687Z,2.78
2022-10-19T23:33:34.875Z,2.60
2022-10-19T23:36:04.666Z,2.65
2022-10-19T23:38:32.153Z,2.83
2022-10-19T23:40:59.530Z,2.50
2022-10-19T23:43:26.907Z,2.58
2022-10-19T23:45:54.221Z,2.50
2022-10-19T23:48:21.477Z,2.28
2022-10-19T23:51:05.926Z,3.08
2022-10-19T23:53:37.081Z,2.90
2022-10-19T23:56:10.634Z,2.55
2022-10-19T23:58:37.842Z,2.85
